Time;durP1;ratioP1;P1;durP2;ratioP2;P2;SDS_P1;SDS_P2;PMS_P1;PMS_P2;Temp;Humidity;BMP_temperature;BMP_pressure;BME280_temperature;BME280_humidity;BME280_pressure;Samples;Min_cycle;Max_cycle;Signal;HPM_P1;HPM_P2
2022/01/30 00:00:56;;;;;;;13.10;5.07;;;;;;;;;;5068227;28;20186;-77
2022/01/30 00:03:23;;;;;;;21.17;4.93;;;;;;;;;;5070859;28;20225;-78
2022/01/30 00:05:50;;;;;;;11.30;4.60;;;;;;;;;;5073817;28;20324;-78
2022/01/30 00:08:17;;;;;;;14.93;4.70;;;;;;;;;;5071363;28;20285;-78
2022/01/30 00:10:46;;;;;;;16.63;5.45;;;;;;;;;;5072402;28;20213;-79
2022/01/30 00:13:17;;;;;;;20.60;6.10;;;;;;;;;;5073569;28;20218;-77
2022/01/30 00:15:48;;;;;;;14.95;4.75;;;;;;;;;;5072539;28;20232;-78
2022/01/30 00:18:30;;;;;;;14.65;4.70;;;;;;;;;;5073808;28;20612;-78
2022/01/30 00:21:07;;;;;;;19.50;4.63;;;;;;;;;;5069129;28;20213;-77
2022/01/30 00:23:39;;;;;;;10.48;4.28;;;;;;;;;;5069969;28;20295;-78
2022/01/30 00:26:08;;;;;;;17.92;4.72;;;;;;;;;;5073224;28;20197;-77
2022/01/30 00:28:37;;;;;;;16.55;3.95;;;;;;;;;;5069927;28;20197;-78
2022/01/30 00:31:05;;;;;;;20.88;5.28;;;;;;;;;;5073077;28;20198;-77
2022/01/30 00:33:32;;;;;;;15.50;4.55;;;;;;;;;;5073369;28;20198;-78
2022/01/30 00:35:59;;;;;;;16.52;5.07;;;;;;;;;;5073997;28;20218;-78
2022/01/30 00:38:27;;;;;;;13.25;4.35;;;;;;;;;;5073684;28;20193;-78
2022/01/30 00:40:55;;;;;;;19.55;5.00;;;;;;;;;;5073683;28;20200;-78
2022/01/30 00:43:23;;;;;;;20.85;4.47;;;;;;;;;;5066978;28;20229;-77
2022/01/30 00:45:51;;;;;;;21.00;4.55;;;;;;;;;;5069724;28;20221;-78
2022/01/30 00:48:19;;;;;;;18.08;5.15;;;;;;;;;;5071432;28;20197;-78
2022/01/30 00:50:46;;;;;;;15.77;4.28;;;;;;;;;;5071665;28;20198;-78
2022/01/30 00:53:14;;;;;;;16.92;4.32;;;;;;;;;;5072766;28;20655;-78
2022/01/30 00:55:42;;;;;;;11.43;3.67;;;;;;;;;;5070974;28;20309;-78
2022/01/30 00:58:09;;;;;;;17.92;4.63;;;;;;;;;;5071744;28;20209;-77
2022/01/30 01:00:36;;;;;;;13.13;4.53;;;;;;;;;;5074558;28;20198;-78
2022/01/30 01:03:06;;;;;;;18.58;4.63;;;;;;;;;;5073877;28;20570;-78
2022/01/30 01:05:35;;;;;;;32.72;6.15;;;;;;;;;;5068317;28;20225;-77
2022/01/30 01:08:10;;;;;;;14.68;4.10;;;;;;;;;;5067119;28;20178;-78
2022/01/30 01:10:41;;;;;;;23.02;4.25;;;;;;;;;;5072139;28;20196;-78
2022/01/30 01:13:25;;;;;;;18.90;4.63;;;;;;;;;;5072125;28;20229;-78
2022/01/30 01:23:58;;;;;;;11.38;3.72;;;;;;;;;;5065048;28;20214;-78
2022/01/30 01:26:26;;;;;;;14.65;4.32;;;;;;;;;;5067852;28;20216;-78
2022/01/30 01:28:53;;;;;;;12.63;4.10;;;;;;;;;;5069677;28;20289;-78
2022/01/30 01:31:21;;;;;;;18.23;4.40;;;;;;;;;;5071359;28;20293;-78
2022/01/30 01:34:04;;;;;;;18.80;4.80;;;;;;;;;;5071475;28;20198;-78
2022/01/30 01:36:31;;;;;;;18.00;4.20;;;;;;;;;;5071692;28;20716;-78
2022/01/30 01:38:58;;;;;;;20.30;4.20;;;;;;;;;;5055780;28;20619;-79
2022/01/30 01:41:27;;;;;;;21.67;4.60;;;;;;;;;;5067773;28;20193;-78
2022/01/30 01:43:54;;;;;;;16.67;4.30;;;;;;;;;;5062924;28;20614;-78
2022/01/30 01:46:25;;;;;;;10.10;3.80;;;;;;;;;;5068998;28;20229;-77
2022/01/30 01:48:54;;;;;;;16.13;4.10;;;;;;;;;;5071146;28;20190;-78
2022/01/30 01:51:23;;;;;;;18.60;4.22;;;;;;;;;;5069445;28;20663;-79
2022/01/30 01:53:51;;;;;;;17.27;6.05;;;;;;;;;;5065283;28;20189;-79
2022/01/30 01:56:18;;;;;;;29.83;4.63;;;;;;;;;;5061381;28;20222;-79
2022/01/30 01:58:45;;;;;;;18.80;3.97;;;;;;;;;;5065718;28;20194;-78
2022/01/30 02:01:13;;;;;;;20.88;5.03;;;;;;;;;;5066642;28;20193;-77
2022/01/30 02:03:40;;;;;;;13.93;4.55;;;;;;;;;;5068309;28;20221;-77
2022/01/30 02:06:12;;;;;;;16.15;4.18;;;;;;;;;;5069736;28;20194;-77
2022/01/30 02:08:42;;;;;;;13.10;4.32;;;;;;;;;;5068964;28;20194;-78
2022/01/30 02:11:12;;;;;;;18.63;4.10;;;;;;;;;;5071678;28;20201;-78
2022/01/30 02:24:44;;;;;;;10.75;3.53;;;;;;;;;;5068356;28;20707;-78
2022/01/30 02:27:14;;;;;;;17.85;4.05;;;;;;;;;;5050971;28;20641;-77
2022/01/30 02:29:41;;;;;;;19.83;4.18;;;;;;;;;;5051160;28;20723;-77
2022/01/30 02:32:09;;;;;;;23.58;4.47;;;;;;;;;;5068214;28;20197;-78
2022/01/30 02:34:36;;;;;;;20.58;4.88;;;;;;;;;;5065272;28;20221;-78
2022/01/30 02:37:04;;;;;;;12.60;3.53;;;;;;;;;;5067501;28;20186;-77
2022/01/30 02:39:31;;;;;;;11.65;4.18;;;;;;;;;;5068576;28;20205;-77
2022/01/30 02:42:02;;;;;;;18.35;4.97;;;;;;;;;;5070930;28;20215;-77
2022/01/30 02:44:36;;;;;;;22.63;4.07;;;;;;;;;;5067475;28;20235;-78
2022/01/30 02:47:08;;;;;;;19.23;3.95;;;;;;;;;;5068835;28;20194;-77
2022/01/30 02:49:56;;;;;;;14.63;4.18;;;;;;;;;;5069353;28;20676;-78
2022/01/30 02:52:23;;;;;;;24.20;4.18;;;;;;;;;;5070136;28;20197;-78
2022/01/30 02:54:52;;;;;;;18.13;3.95;;;;;;;;;;5067360;28;20249;-78
2022/01/30 02:57:20;;;;;;;28.80;4.32;;;;;;;;;;5066566;28;20194;-77
2022/01/30 02:59:48;;;;;;;12.90;3.88;;;;;;;;;;5067120;28;20186;-78
2022/01/30 03:02:15;;;;;;;16.25;3.50;;;;;;;;;;5066953;28;20189;-78
2022/01/30 03:04:42;;;;;;;16.15;3.80;;;;;;;;;;5070124;28;20221;-78
2022/01/30 03:07:09;;;;;;;18.55;4.30;;;;;;;;;;5069204;28;20205;-78
2022/01/30 03:09:37;;;;;;;15.15;4.25;;;;;;;;;;5066310;28;20202;-78
2022/01/30 03:12:04;;;;;;;23.77;4.63;;;;;;;;;;5070729;28;20225;-78
2022/01/30 03:14:33;;;;;;;15.45;3.72;;;;;;;;;;5068766;28;20221;-77
2022/01/30 03:17:01;;;;;;;17.13;4.15;;;;;;;;;;5069258;28;20198;-78
2022/01/30 03:19:43;;;;;;;27.15;4.80;;;;;;;;;;5073961;28;20600;-79
2022/01/30 03:22:10;;;;;;;17.73;3.88;;;;;;;;;;5030589;28;20699;-78
2022/01/30 03:24:37;;;;;;;18.33;4.18;;;;;;;;;;5031363;28;20231;-78
2022/01/30 03:27:05;;;;;;;18.13;4.43;;;;;;;;;;5031995;28;20586;-78
2022/01/30 03:29:34;;;;;;;17.08;4.57;;;;;;;;;;5009429;28;20592;-77
2022/01/30 03:32:02;;;;;;;18.48;3.63;;;;;;;;;;5027331;28;20667;-78
2022/01/30 03:34:29;;;;;;;17.55;4.60;;;;;;;;;;5011933;28;20207;-79
2022/01/30 03:36:56;;;;;;;22.05;5.25;;;;;;;;;;5031058;28;20188;-79
2022/01/30 03:39:23;;;;;;;16.95;3.97;;;;;;;;;;5029606;28;20199;-78
2022/01/30 03:41:51;;;;;;;22.48;5.55;;;;;;;;;;5015466;28;20195;-77
2022/01/30 03:44:18;;;;;;;18.85;4.53;;;;;;;;;;5029553;28;20227;-78
2022/01/30 03:46:47;;;;;;;14.32;3.88;;;;;;;;;;5003887;28;20207;-78
2022/01/30 03:49:14;;;;;;;16.10;4.95;;;;;;;;;;5014402;28;20218;-78
2022/01/30 03:51:41;;;;;;;13.50;3.58;;;;;;;;;;5031802;28;20191;-78
2022/01/30 03:54:08;;;;;;;15.05;4.25;;;;;;;;;;5061878;28;20229;-77
2022/01/30 03:56:35;;;;;;;17.85;3.55;;;;;;;;;;5070486;28;20182;-78
2022/01/30 03:59:02;;;;;;;10.60;3.90;;;;;;;;;;5073426;28;20194;-78
2022/01/30 04:01:29;;;;;;;18.10;4.05;;;;;;;;;;5072288;28;20536;-78
2022/01/30 04:03:58;;;;;;;27.65;4.00;;;;;;;;;;5072123;28;20574;-77
2022/01/30 04:06:26;;;;;;;10.23;3.00;;;;;;;;;;5071597;28;20225;-78
2022/01/30 04:08:53;;;;;;;14.63;3.70;;;;;;;;;;5071954;28;20208;-77
2022/01/30 04:11:22;;;;;;;22.02;3.38;;;;;;;;;;5070684;28;20201;-78
2022/01/30 04:13:49;;;;;;;24.95;4.60;;;;;;;;;;5067708;28;20222;-78
2022/01/30 04:16:17;;;;;;;22.65;3.80;;;;;;;;;;5072091;28;20659;-78
2022/01/30 04:18:44;;;;;;;23.10;4.05;;;;;;;;;;5071386;28;20292;-78
2022/01/30 04:21:13;;;;;;;24.67;4.60;;;;;;;;;;5073405;28;20198;-77
2022/01/30 04:23:40;;;;;;;19.35;4.28;;;;;;;;;;5071453;28;20564;-77
2022/01/30 04:26:07;;;;;;;18.20;4.47;;;;;;;;;;5072562;28;20202;-78
2022/01/30 04:28:35;;;;;;;21.80;4.70;;;;;;;;;;5073447;28;20198;-78
2022/01/30 04:31:03;;;;;;;20.90;3.42;;;;;;;;;;5072730;28;20827;-78
2022/01/30 04:33:30;;;;;;;28.33;5.70;;;;;;;;;;5069401;28;20599;-78
2022/01/30 04:35:57;;;;;;;15.00;3.90;;;;;;;;;;5068813;28;20220;-78
2022/01/30 04:38:32;;;;;;;20.88;4.00;;;;;;;;;;5070157;28;20551;-78
2022/01/30 04:41:24;;;;;;;21.83;5.03;;;;;;;;;;5071184;28;20194;-77
2022/01/30 04:52:21;;;;;;;21.10;4.82;;;;;;;;;;5074539;28;20190;-77
2022/01/30 05:00:27;;;;;;;18.45;3.78;;;;;;;;;;5069067;28;20197;-78
2022/01/30 05:03:02;;;;;;;12.95;3.33;;;;;;;;;;5068900;28;20244;-79
2022/01/30 05:08:25;;;;;;;19.52;4.13;;;;;;;;;;4990036;28;20196;-77
2022/01/30 05:10:54;;;;;;;21.90;4.35;;;;;;;;;;4989851;28;20200;-77
2022/01/30 05:13:24;;;;;;;23.08;4.85;;;;;;;;;;4987181;28;20680;-77
2022/01/30 05:15:52;;;;;;;11.65;3.55;;;;;;;;;;4984661;28;20232;-77
2022/01/30 05:18:20;;;;;;;15.70;4.03;;;;;;;;;;4986796;28;20215;-78
2022/01/30 05:20:47;;;;;;;15.68;3.88;;;;;;;;;;4972033;28;20251;-78
2022/01/30 05:23:16;;;;;;;15.98;3.70;;;;;;;;;;4972690;28;20633;-78
2022/01/30 05:25:43;;;;;;;13.57;4.10;;;;;;;;;;4988791;28;20718;-78
2022/01/30 05:28:12;;;;;;;15.65;5.18;;;;;;;;;;4989451;28;20200;-78
2022/01/30 05:30:39;;;;;;;17.88;4.60;;;;;;;;;;4991361;28;20295;-78
2022/01/30 05:33:07;;;;;;;16.92;5.07;;;;;;;;;;4992821;28;20203;-78
2022/01/30 05:35:34;;;;;;;16.15;4.15;;;;;;;;;;4987425;28;20687;-77
2022/01/30 05:38:02;;;;;;;14.13;3.58;;;;;;;;;;4984655;28;20201;-78
2022/01/30 05:40:29;;;;;;;18.17;4.70;;;;;;;;;;5063893;28;20198;-78
2022/01/30 05:42:56;;;;;;;16.25;4.00;;;;;;;;;;5071256;28;20198;-79
2022/01/30 05:45:31;;;;;;;16.27;4.70;;;;;;;;;;5071289;28;20804;-78
2022/01/30 05:48:02;;;;;;;20.60;4.68;;;;;;;;;;5070046;28;20210;-78
2022/01/30 05:50:30;;;;;;;14.82;4.45;;;;;;;;;;5070508;28;20194;-77
2022/01/30 05:52:57;;;;;;;14.23;3.58;;;;;;;;;;5055676;28;20199;-79
2022/01/30 05:55:24;;;;;;;20.13;3.88;;;;;;;;;;5067862;28;20570;-78
2022/01/30 05:57:51;;;;;;;18.33;4.20;;;;;;;;;;5071772;28;20198;-78
2022/01/30 06:00:19;;;;;;;18.65;4.13;;;;;;;;;;5067207;28;20190;-78
2022/01/30 06:02:48;;;;;;;12.88;3.88;;;;;;;;;;5068304;28;20202;-78
2022/01/30 06:05:17;;;;;;;19.75;4.70;;;;;;;;;;5070348;28;20272;-79
2022/01/30 06:07:51;;;;;;;20.10;3.67;;;;;;;;;;5069740;28;20220;-79
2022/01/30 06:10:18;;;;;;;17.50;3.75;;;;;;;;;;5070248;28;20290;-79
2022/01/30 06:12:46;;;;;;;21.85;4.07;;;;;;;;;;5068115;28;20221;-79
2022/01/30 06:15:14;;;;;;;13.13;3.40;;;;;;;;;;5069079;28;20233;-79
2022/01/30 06:17:41;;;;;;;18.65;5.78;;;;;;;;;;5064981;28;20255;-79
2022/01/30 06:20:10;;;;;;;17.73;3.10;;;;;;;;;;5066443;28;20194;-78
2022/01/30 06:22:37;;;;;;;16.60;3.35;;;;;;;;;;5068893;28;20193;-78
2022/01/30 06:25:05;;;;;;;27.08;4.13;;;;;;;;;;5069292;28;20222;-78
2022/01/30 06:27:32;;;;;;;20.80;3.92;;;;;;;;;;5070023;28;20194;-78
2022/01/30 06:29:59;;;;;;;13.85;3.40;;;;;;;;;;5073448;28;20204;-79
2022/01/30 06:32:27;;;;;;;17.15;3.85;;;;;;;;;;5068073;28;20202;-78
2022/01/30 06:34:54;;;;;;;17.13;3.92;;;;;;;;;;5063815;28;20309;-79
2022/01/30 06:37:23;;;;;;;14.23;3.28;;;;;;;;;;5065512;28;20201;-78
2022/01/30 06:39:50;;;;;;;19.33;3.80;;;;;;;;;;5070454;28;20198;-78
2022/01/30 06:42:17;;;;;;;16.27;3.83;;;;;;;;;;5069588;28;20204;-79
2022/01/30 06:44:45;;;;;;;17.83;3.45;;;;;;;;;;5068689;28;20229;-78
2022/01/30 06:47:12;;;;;;;13.48;3.53;;;;;;;;;;5072100;28;20647;-79
2022/01/30 06:49:40;;;;;;;8.48;3.60;;;;;;;;;;5074662;28;20318;-78
2022/01/30 06:52:09;;;;;;;12.70;3.00;;;;;;;;;;5068675;28;20197;-78
2022/01/30 06:54:38;;;;;;;16.65;3.72;;;;;;;;;;5070669;28;20214;-79
2022/01/30 06:57:06;;;;;;;15.90;3.80;;;;;;;;;;5072690;28;20226;-78
2022/01/30 06:59:33;;;;;;;13.93;3.22;;;;;;;;;;5073091;28;20194;-78
2022/01/30 07:02:00;;;;;;;12.68;3.50;;;;;;;;;;5071042;28;20195;-78
2022/01/30 07:04:27;;;;;;;11.80;3.80;;;;;;;;;;5073299;28;20210;-78
2022/01/30 07:06:55;;;;;;;14.50;3.00;;;;;;;;;;5073054;28;20202;-78
2022/01/30 07:09:22;;;;;;;13.00;3.25;;;;;;;;;;5069313;28;20192;-78
2022/01/30 07:11:50;;;;;;;18.40;3.03;;;;;;;;;;5067628;28;20226;-78
2022/01/30 07:14:17;;;;;;;16.70;3.65;;;;;;;;;;5074126;28;20218;-78
2022/01/30 07:16:44;;;;;;;15.07;3.80;;;;;;;;;;5066079;28;20194;-78
2022/01/30 07:19:12;;;;;;;11.98;3.20;;;;;;;;;;5067283;28;20202;-78
2022/01/30 07:21:39;;;;;;;14.80;3.20;;;;;;;;;;5068735;28;20200;-79
2022/01/30 07:24:06;;;;;;;15.82;3.00;;;;;;;;;;5071125;28;20213;-78
2022/01/30 07:26:34;;;;;;;17.63;3.88;;;;;;;;;;5065227;28;20218;-77
2022/01/30 07:29:03;;;;;;;11.77;2.67;;;;;;;;;;5067886;28;20206;-78
2022/01/30 07:31:31;;;;;;;19.35;3.10;;;;;;;;;;5067003;28;20248;-78
2022/01/30 07:33:58;;;;;;;13.30;2.67;;;;;;;;;;5059789;28;20210;-78
2022/01/30 07:36:25;;;;;;;9.95;3.40;;;;;;;;;;5072805;28;20201;-78
2022/01/30 07:38:53;;;;;;;16.90;3.33;;;;;;;;;;5071919;28;20289;-78
2022/01/30 07:41:20;;;;;;;12.02;2.88;;;;;;;;;;5072257;28;20202;-77
2022/01/30 07:43:48;;;;;;;13.73;3.53;;;;;;;;;;5065593;28;20306;-77
2022/01/30 07:46:16;;;;;;;13.63;2.88;;;;;;;;;;5068103;28;20222;-77
2022/01/30 07:48:43;;;;;;;21.50;3.65;;;;;;;;;;5066145;28;20202;-77
2022/01/30 07:51:10;;;;;;;11.85;2.85;;;;;;;;;;5070516;28;20198;-76
2022/01/30 07:53:37;;;;;;;12.93;2.85;;;;;;;;;;5068697;28;20651;-77
2022/01/30 07:56:05;;;;;;;13.88;2.95;;;;;;;;;;5071978;28;20976;-76
2022/01/30 07:58:32;;;;;;;11.40;2.72;;;;;;;;;;5072855;28;20198;-76
2022/01/30 08:00:59;;;;;;;14.48;4.15;;;;;;;;;;5066255;28;20547;-76
2022/01/30 08:03:28;;;;;;;10.77;3.50;;;;;;;;;;5067969;28;20228;-75
2022/01/30 08:05:56;;;;;;;17.77;3.60;;;;;;;;;;5057182;28;20214;-75
2022/01/30 08:08:23;;;;;;;9.43;3.35;;;;;;;;;;5063488;28;20663;-77
2022/01/30 08:10:50;;;;;;;7.63;2.50;;;;;;;;;;5054286;28;20655;-77
2022/01/30 08:13:17;;;;;;;14.85;3.13;;;;;;;;;;5053712;28;20273;-76
2022/01/30 08:15:45;;;;;;;18.02;3.45;;;;;;;;;;5056188;28;20226;-76
2022/01/30 08:18:12;;;;;;;16.48;3.40;;;;;;;;;;5053253;28;20628;-76
2022/01/30 08:20:42;;;;;;;15.63;4.20;;;;;;;;;;5067493;28;20190;-76
2022/01/30 08:23:14;;;;;;;11.90;4.03;;;;;;;;;;5063974;28;20190;-77
2022/01/30 08:25:42;;;;;;;9.43;3.15;;;;;;;;;;5068009;28;20271;-77
2022/01/30 08:28:09;;;;;;;10.30;2.97;;;;;;;;;;5067820;28;20243;-75
2022/01/30 08:30:37;;;;;;;9.70;3.05;;;;;;;;;;5070347;28;20186;-75
2022/01/30 08:33:04;;;;;;;10.27;3.55;;;;;;;;;;5072376;28;20198;-77
2022/01/30 08:35:32;;;;;;;10.73;3.50;;;;;;;;;;5069769;28;20214;-78
2022/01/30 08:38:01;;;;;;;7.70;2.92;;;;;;;;;;5066391;28;20222;-75
2022/01/30 08:40:28;;;;;;;14.50;2.90;;;;;;;;;;5057041;28;20201;-76
2022/01/30 08:42:56;;;;;;;9.40;3.30;;;;;;;;;;5057588;28;20221;-77
2022/01/30 08:45:23;;;;;;;11.43;2.90;;;;;;;;;;5066369;28;20230;-77
2022/01/30 08:47:51;;;;;;;19.20;4.90;;;;;;;;;;5071568;28;20198;-77
2022/01/30 08:50:19;;;;;;;14.73;4.88;;;;;;;;;;5071387;28;20200;-76
2022/01/30 08:52:46;;;;;;;15.15;5.00;;;;;;;;;;5071993;28;20908;-77
2022/01/30 08:55:16;;;;;;;17.40;5.05;;;;;;;;;;5064336;28;20218;-77
2022/01/30 08:57:43;;;;;;;17.17;4.32;;;;;;;;;;5052170;28;20187;-77
2022/01/30 09:00:11;;;;;;;15.95;3.50;;;;;;;;;;5062880;28;20191;-77
2022/01/30 09:02:39;;;;;;;17.38;4.40;;;;;;;;;;5067333;28;20197;-76
2022/01/30 09:05:06;;;;;;;15.93;3.95;;;;;;;;;;5068976;28;20212;-77
2022/01/30 09:07:34;;;;;;;13.55;4.15;;;;;;;;;;5069761;28;20596;-77
2022/01/30 09:10:01;;;;;;;12.85;3.50;;;;;;;;;;5070742;28;20285;-78
2022/01/30 09:12:29;;;;;;;10.90;4.40;;;;;;;;;;5068096;28;20222;-77
2022/01/30 09:14:57;;;;;;;16.30;4.45;;;;;;;;;;5072212;28;20213;-76
2022/01/30 09:17:26;;;;;;;15.13;4.90;;;;;;;;;;5066823;28;20588;-77
2022/01/30 09:19:53;;;;;;;16.52;4.65;;;;;;;;;;5061236;28;20603;-76
2022/01/30 09:22:20;;;;;;;14.00;3.67;;;;;;;;;;5064566;28;20217;-76
2022/01/30 09:24:49;;;;;;;15.80;3.60;;;;;;;;;;5066635;28;20213;-77
2022/01/30 09:27:17;;;;;;;9.45;4.05;;;;;;;;;;5066227;28;20241;-75
2022/01/30 09:29:46;;;;;;;13.30;3.28;;;;;;;;;;5052911;28;20217;-77
2022/01/30 09:32:14;;;;;;;10.85;3.58;;;;;;;;;;5066160;28;20217;-76
2022/01/30 09:34:41;;;;;;;16.25;4.35;;;;;;;;;;5072071;28;20241;-76
2022/01/30 09:37:09;;;;;;;25.30;5.22;;;;;;;;;;5062088;28;20212;-76
2022/01/30 09:39:37;;;;;;;15.38;4.07;;;;;;;;;;5065498;28;20294;-75
2022/01/30 09:42:05;;;;;;;19.58;4.80;;;;;;;;;;5067565;28;20200;-75
2022/01/30 09:44:36;;;;;;;15.07;3.60;;;;;;;;;;5069776;28;20224;-79
2022/01/30 09:47:04;;;;;;;14.57;3.63;;;;;;;;;;5058976;28;20219;-76
2022/01/30 09:49:31;;;;;;;16.58;5.50;;;;;;;;;;5053325;28;20209;-79
2022/01/30 09:51:59;;;;;;;27.27;5.37;;;;;;;;;;5066350;28;20539;-77
2022/01/30 09:54:26;;;;;;;18.97;4.70;;;;;;;;;;5065358;28;20479;-78
2022/01/30 09:56:53;;;;;;;14.23;4.15;;;;;;;;;;5065078;28;20470;-79
2022/01/30 09:59:20;;;;;;;21.30;4.38;;;;;;;;;;5065367;28;20191;-82
2022/01/30 10:01:47;;;;;;;15.75;5.30;;;;;;;;;;5064331;28;20609;-79
2022/01/30 10:04:16;;;;;;;16.52;4.30;;;;;;;;;;5059042;28;20206;-78
2022/01/30 10:07:01;;;;;;;13.73;4.32;;;;;;;;;;5058112;28;20217;-80
2022/01/30 10:09:31;;;;;;;15.80;6.07;;;;;;;;;;5067959;28;20202;-78
2022/01/30 10:12:15;;;;;;;15.13;4.75;;;;;;;;;;5066785;28;20463;-79
2022/01/30 10:14:50;;;;;;;13.10;3.85;;;;;;;;;;5062651;28;20210;-78
2022/01/30 10:17:26;;;;;;;11.05;3.97;;;;;;;;;;5064505;28;20220;-76
2022/01/30 10:20:02;;;;;;;15.80;3.90;;;;;;;;;;5063002;28;20194;-77
2022/01/30 10:22:29;;;;;;;13.98;3.80;;;;;;;;;;5055515;28;20456;-77
2022/01/30 10:24:57;;;;;;;16.10;3.60;;;;;;;;;;5063662;28;20229;-75
2022/01/30 10:27:25;;;;;;;14.87;3.90;;;;;;;;;;5052535;28;20554;-81
2022/01/30 10:29:58;;;;;;;12.97;3.80;;;;;;;;;;5062156;28;20444;-78
2022/01/30 10:32:26;;;;;;;15.02;3.47;;;;;;;;;;5064343;28;20448;-79
2022/01/30 10:35:03;;;;;;;18.13;4.50;;;;;;;;;;5065112;28;20248;-78
2022/01/30 10:37:31;;;;;;;16.80;4.73;;;;;;;;;;5067143;28;20975;-81
2022/01/30 10:40:04;;;;;;;18.42;4.18;;;;;;;;;;5061741;28;20456;-78
2022/01/30 10:42:32;;;;;;;25.27;4.78;;;;;;;;;;5064699;28;20193;-77
2022/01/30 10:45:00;;;;;;;12.03;3.80;;;;;;;;;;5056905;28;20221;-77
2022/01/30 10:47:29;;;;;;;10.23;4.17;;;;;;;;;;5059433;28;20484;-77
2022/01/30 10:49:57;;;;;;;20.50;5.40;;;;;;;;;;5057938;28;20448;-80
2022/01/30 10:52:25;;;;;;;17.70;4.33;;;;;;;;;;5055221;28;20445;-76
2022/01/30 10:54:53;;;;;;;17.35;4.70;;;;;;;;;;5058416;28;20551;-75
2022/01/30 10:57:20;;;;;;;15.43;4.43;;;;;;;;;;5055608;28;20531;-79
2022/01/30 10:59:53;;;;;;;11.73;3.60;;;;;;;;;;5065610;28;20440;-78
2022/01/30 11:02:21;;;;;;;19.00;4.20;;;;;;;;;;5059546;28;20247;-76
2022/01/30 11:04:49;;;;;;;21.70;4.20;;;;;;;;;;5064767;28;20583;-77
2022/01/30 11:07:20;;;;;;;13.10;3.73;;;;;;;;;;5065716;28;20583;-77
2022/01/30 11:10:01;;;;;;;16.83;4.80;;;;;;;;;;5052930;28;20494;-77
2022/01/30 11:12:34;;;;;;;13.47;4.60;;;;;;;;;;5056922;28;20475;-77
2022/01/30 11:15:17;;;;;;;17.57;4.43;;;;;;;;;;5057493;28;20495;-78
2022/01/30 11:17:44;;;;;;;12.90;4.27;;;;;;;;;;5060266;28;20680;-76
2022/01/30 11:20:13;;;;;;;14.77;4.55;;;;;;;;;;5067828;28;20937;-76
2022/01/30 11:22:41;;;;;;;19.87;4.53;;;;;;;;;;5082539;28;20189;-78
2022/01/30 11:25:12;;;;;;;15.20;4.50;;;;;;;;;;5071319;28;20461;-76
2022/01/30 11:27:41;;;;;;;16.90;4.10;;;;;;;;;;5065416;28;20917;-77
2022/01/30 11:30:09;;;;;;;16.73;4.35;;;;;;;;;;5064364;28;20229;-77
2022/01/30 11:32:36;;;;;;;14.93;4.60;;;;;;;;;;5070530;28;20198;-78
2022/01/30 11:35:04;;;;;;;12.73;3.95;;;;;;;;;;5072038;28;20206;-79
2022/01/30 11:37:32;;;;;;;19.77;4.72;;;;;;;;;;5074357;28;20206;-78
2022/01/30 11:40:00;;;;;;;23.53;5.73;;;;;;;;;;5074385;28;20197;-77
2022/01/30 11:42:37;;;;;;;20.80;4.10;;;;;;;;;;5071934;28;20492;-77
2022/01/30 11:45:19;;;;;;;9.77;4.43;;;;;;;;;;5074100;28;20957;-78
2022/01/30 11:47:48;;;;;;;19.65;4.32;;;;;;;;;;5025101;28;20234;-77
2022/01/30 11:50:17;;;;;;;17.58;5.45;;;;;;;;;;5024282;28;20238;-76
2022/01/30 11:52:52;;;;;;;21.35;4.93;;;;;;;;;;5030905;28;20334;-76
2022/01/30 11:55:34;;;;;;;28.73;5.82;;;;;;;;;;5030248;28;20219;-76
2022/01/30 11:58:03;;;;;;;21.87;5.73;;;;;;;;;;5030236;28;20657;-76
2022/01/30 12:00:38;;;;;;;18.92;5.35;;;;;;;;;;5027099;28;20443;-77
2022/01/30 12:03:20;;;;;;;23.83;5.85;;;;;;;;;;5026640;28;20204;-76
2022/01/30 12:05:47;;;;;;;17.52;5.00;;;;;;;;;;5028755;28;20211;-77
2022/01/30 12:08:29;;;;;;;18.50;5.37;;;;;;;;;;5030139;28;20270;-76
2022/01/30 12:10:56;;;;;;;23.70;5.33;;;;;;;;;;5026209;28;20454;-78
2022/01/30 12:13:38;;;;;;;24.57;6.50;;;;;;;;;;5018041;28;20979;-78
2022/01/30 12:16:07;;;;;;;32.80;5.90;;;;;;;;;;5022649;28;20468;-76
2022/01/30 12:18:45;;;;;;;15.33;4.00;;;;;;;;;;5042258;28;20850;-77
2022/01/30 12:21:16;;;;;;;16.20;4.30;;;;;;;;;;5057260;28;20448;-79
2022/01/30 12:23:45;;;;;;;16.60;4.70;;;;;;;;;;5071922;28;20535;-77
2022/01/30 12:26:14;;;;;;;20.20;4.73;;;;;;;;;;5074135;28;20835;-76
2022/01/30 12:28:42;;;;;;;15.63;4.17;;;;;;;;;;5075247;28;20432;-76
2022/01/30 12:31:24;;;;;;;16.17;4.83;;;;;;;;;;5069234;28;20436;-77
2022/01/30 12:34:00;;;;;;;19.23;4.10;;;;;;;;;;5066600;28;20452;-76
2022/01/30 12:36:27;;;;;;;14.13;4.30;;;;;;;;;;5068152;28;20463;-76
2022/01/30 12:38:55;;;;;;;13.90;3.43;;;;;;;;;;5071801;28;20440;-77
2022/01/30 12:41:23;;;;;;;21.17;5.17;;;;;;;;;;5072341;28;20937;-77
2022/01/30 12:43:53;;;;;;;19.53;4.40;;;;;;;;;;5065884;28;20456;-78
2022/01/30 12:46:20;;;;;;;15.27;5.27;;;;;;;;;;5063563;28;20480;-77
2022/01/30 12:49:03;;;;;;;19.40;5.43;;;;;;;;;;5059734;28;20464;-77
2022/01/30 12:51:31;;;;;;;19.23;4.77;;;;;;;;;;5064480;28;22738;-77
2022/01/30 12:53:59;;;;;;;11.50;4.20;;;;;;;;;;5056882;28;20997;-77
2022/01/30 12:56:27;;;;;;;17.87;4.40;;;;;;;;;;5053974;28;20451;-76
2022/01/30 12:58:56;;;;;;;17.33;4.60;;;;;;;;;;5057133;28;20828;-76
2022/01/30 13:01:26;;;;;;;17.60;4.70;;;;;;;;;;5065224;28;20941;-75
2022/01/30 13:04:01;;;;;;;14.73;4.63;;;;;;;;;;5056317;28;20817;-76
2022/01/30 13:06:33;;;;;;;11.80;4.10;;;;;;;;;;5058557;28;20497;-75
2022/01/30 13:09:00;;;;;;;16.97;4.17;;;;;;;;;;5067208;28;20437;-76
2022/01/30 13:11:27;;;;;;;15.77;4.43;;;;;;;;;;5066209;28;20428;-79
2022/01/30 13:13:56;;;;;;;19.40;5.37;;;;;;;;;;5052674;28;20438;-80
2022/01/30 13:16:24;;;;;;;14.00;4.13;;;;;;;;;;5059531;28;20476;-78
2022/01/30 13:18:51;;;;;;;11.60;3.67;;;;;;;;;;5062807;28;20457;-78
2022/01/30 13:21:23;;;;;;;19.30;4.60;;;;;;;;;;5067772;28;21028;-78
2022/01/30 13:23:53;;;;;;;16.90;4.90;;;;;;;;;;5060323;28;20534;-78
2022/01/30 13:26:35;;;;;;;17.33;5.07;;;;;;;;;;5066526;28;20471;-78
2022/01/30 13:29:04;;;;;;;15.57;5.37;;;;;;;;;;5065396;28;20464;-78
2022/01/30 13:31:32;;;;;;;19.73;4.70;;;;;;;;;;5051778;28;20441;-77
2022/01/30 13:34:14;;;;;;;18.63;4.57;;;;;;;;;;5052973;28;20461;-79
2022/01/30 13:36:42;;;;;;;19.80;4.80;;;;;;;;;;5051711;28;20445;-79
2022/01/30 13:39:14;;;;;;;17.33;5.77;;;;;;;;;;5060860;28;20555;-78
2022/01/30 13:41:49;;;;;;;14.70;4.80;;;;;;;;;;5066629;28;20506;-76
2022/01/30 13:44:49;;;;;;;19.93;4.80;;;;;;;;;;5020867;28;21006;-77
2022/01/30 13:47:18;;;;;;;18.03;5.13;;;;;;;;;;5022684;28;20485;-77
2022/01/30 13:49:49;;;;;;;25.20;4.73;;;;;;;;;;4992653;28;20468;-77
2022/01/30 13:52:17;;;;;;;14.57;4.00;;;;;;;;;;5021790;28;20430;-77
2022/01/30 13:54:58;;;;;;;19.87;5.13;;;;;;;;;;5023765;28;20892;-76
2022/01/30 13:57:30;;;;;;;22.00;4.60;;;;;;;;;;5027945;28;20442;-78
2022/01/30 14:00:04;;;;;;;13.33;4.30;;;;;;;;;;5027878;28;20466;-76
2022/01/30 14:02:32;;;;;;;12.90;3.73;;;;;;;;;;5043265;28;20447;-77
2022/01/30 14:05:14;;;;;;;11.23;4.60;;;;;;;;;;5066627;28;20479;-77
2022/01/30 14:07:41;;;;;;;13.10;4.40;;;;;;;;;;5069752;28;20814;-77
2022/01/30 14:10:09;;;;;;;15.93;4.20;;;;;;;;;;5071451;28;20440;-78
2022/01/30 14:12:39;;;;;;;15.40;5.20;;;;;;;;;;5071283;28;20464;-77
2022/01/30 14:15:08;;;;;;;12.80;4.50;;;;;;;;;;5070349;28;20980;-77
2022/01/30 14:17:40;;;;;;;22.30;4.83;;;;;;;;;;5061469;28;21034;-77
2022/01/30 14:20:11;;;;;;;13.57;4.23;;;;;;;;;;5070034;28;20964;-79
2022/01/30 14:22:38;;;;;;;13.93;4.10;;;;;;;;;;5073619;28;20439;-77
2022/01/30 14:25:07;;;;;;;16.43;4.27;;;;;;;;;;5066216;28;20461;-75
2022/01/30 14:27:37;;;;;;;11.40;4.10;;;;;;;;;;5062982;28;20475;-77
2022/01/30 14:30:13;;;;;;;21.83;4.97;;;;;;;;;;5071423;28;20992;-77
2022/01/30 14:32:42;;;;;;;12.83;3.70;;;;;;;;;;5070166;28;20947;-78
2022/01/30 14:35:11;;;;;;;11.00;3.50;;;;;;;;;;5057407;28;20465;-77
2022/01/30 14:37:40;;;;;;;20.40;4.77;;;;;;;;;;5050667;28;20441;-78
2022/01/30 14:40:08;;;;;;;14.93;3.73;;;;;;;;;;5068336;28;20802;-77
2022/01/30 14:42:36;;;;;;;13.43;3.70;;;;;;;;;;5063707;28;20456;-77
2022/01/30 14:45:04;;;;;;;16.57;4.90;;;;;;;;;;5065513;28;20468;-78
2022/01/30 14:47:32;;;;;;;19.23;5.30;;;;;;;;;;5054132;28;20909;-78
2022/01/30 14:49:59;;;;;;;13.13;4.00;;;;;;;;;;5067265;28;20455;-78
2022/01/30 14:52:26;;;;;;;16.87;4.20;;;;;;;;;;5069839;28;20835;-76
2022/01/30 14:54:53;;;;;;;14.50;3.87;;;;;;;;;;5088840;23;20490;-75
2022/01/30 14:57:22;;;;;;;16.90;4.70;;;;;;;;;;5017935;28;20627;-77
2022/01/30 14:59:50;;;;;;;21.93;4.77;;;;;;;;;;5028201;28;20499;-78
2022/01/30 15:02:18;;;;;;;15.07;4.33;;;;;;;;;;5030586;28;20449;-74
2022/01/30 15:04:45;;;;;;;12.23;5.30;;;;;;;;;;5017176;28;20780;-79
2022/01/30 15:07:14;;;;;;;21.13;6.27;;;;;;;;;;5018591;28;20570;-77
2022/01/30 15:09:41;;;;;;;13.60;5.23;;;;;;;;;;4995400;28;20452;-78
2022/01/30 15:12:12;;;;;;;10.73;4.00;;;;;;;;;;4995705;28;20451;-79
2022/01/30 15:14:39;;;;;;;16.63;3.73;;;;;;;;;;5004816;28;20490;-78
2022/01/30 15:17:18;;;;;;;16.90;5.60;;;;;;;;;;5006906;28;20466;-78
2022/01/30 15:19:45;;;;;;;15.10;4.57;;;;;;;;;;5003293;28;20533;-78